Time;durP1;ratioP1;P1;durP2;ratioP2;P2;SDS_P1;SDS_P2;PMS_P1;PMS_P2;Temp;Humidity;BMP_temperature;BMP_pressure;BME280_temperature;BME280_humidity;BME280_pressure;Samples;Min_cycle;Max_cycle;Signal;HPM_P1;HPM_P2
2023/07/30 00:00:41;;;;;;;6.55;3.47;;;;;;;-147.32;100.00;65238.50;10474309;28;20049;-66
2023/07/30 00:05:41;;;;;;;9.00;4.82;;;;;;;-147.32;100.00;65238.50;10453295;28;20066;-66
2023/07/30 00:10:42;;;;;;;12.73;4.15;;;;;;;-147.32;100.00;65238.50;10440936;28;20052;-66
2023/07/30 00:15:42;;;;;;;7.97;4.05;;;;;;;-147.32;100.00;65238.50;10441949;28;20039;-66
2023/07/30 00:20:43;;;;;;;8.63;3.83;;;;;;;-147.32;100.00;65238.50;10425208;28;20072;-66
2023/07/30 00:25:43;;;;;;;9.80;4.53;;;;;;;-147.32;100.00;65238.50;10467893;28;20036;-66
2023/07/30 00:30:44;;;;;;;11.30;4.80;;;;;;;-147.32;100.00;65238.50;10435287;28;20105;-66
2023/07/30 00:35:45;;;;;;;7.72;4.20;;;;;;;-147.32;100.00;65238.50;10457272;28;20037;-66
2023/07/30 00:40:45;;;;;;;11.90;4.18;;;;;;;-147.32;100.00;65238.50;10469663;28;20071;-66
2023/07/30 00:45:46;;;;;;;8.85;3.95;;;;;;;-147.32;100.00;65238.50;10438000;28;20687;-67
2023/07/30 00:50:46;;;;;;;9.60;4.45;;;;;;;-147.32;100.00;65238.50;10425929;28;20483;-66
2023/07/30 00:55:47;;;;;;;8.38;3.80;;;;;;;-147.32;100.00;65238.50;10450432;28;20098;-66
2023/07/30 01:00:47;;;;;;;12.35;3.85;;;;;;;-147.32;100.00;65238.50;10470920;28;20072;-66
2023/07/30 01:05:48;;;;;;;9.27;3.97;;;;;;;-147.32;100.00;65238.50;10456613;28;20063;-66
2023/07/30 01:10:48;;;;;;;10.07;4.15;;;;;;;-147.32;100.00;65238.50;10436333;28;20048;-67
2023/07/30 01:15:49;;;;;;;13.80;3.67;;;;;;;-147.32;100.00;65238.50;10462981;28;20428;-66
2023/07/30 01:20:53;;;;;;;7.65;4.07;;;;;;;-147.32;100.00;65238.50;10439041;28;20102;-66
2023/07/30 01:26:23;;;;;;;12.32;4.15;;;;;;;-147.32;100.00;65238.50;10448857;28;20079;-67
2023/07/30 01:31:25;;;;;;;14.60;3.88;;;;;;;-147.32;100.00;65238.50;10443372;28;20041;-67
2023/07/30 01:36:25;;;;;;;17.17;5.53;;;;;;;-147.32;100.00;65238.50;10410549;28;20106;-67
2023/07/30 01:41:26;;;;;;;14.40;5.55;;;;;;;-147.32;100.00;65238.50;10441531;28;20106;-66
2023/07/30 01:46:26;;;;;;;17.15;4.95;;;;;;;-147.32;100.00;65238.50;10416665;28;20045;-66
2023/07/30 01:51:27;;;;;;;14.30;5.07;;;;;;;-147.32;100.00;65238.50;10462194;28;20044;-66
2023/07/30 01:56:27;;;;;;;17.58;4.93;;;;;;;-147.32;100.00;65238.50;10434835;28;22450;-66
2023/07/30 02:01:28;;;;;;;11.10;4.32;;;;;;;-147.32;100.00;65238.50;10463041;28;20056;-66
2023/07/30 02:06:28;;;;;;;16.10;4.97;;;;;;;-147.32;100.00;65238.50;10460497;28;20037;-67
2023/07/30 02:11:29;;;;;;;15.45;5.28;;;;;;;-147.32;100.00;65238.50;10437947;28;20032;-67
2023/07/30 02:16:29;;;;;;;15.25;5.38;;;;;;;-147.32;100.00;65238.50;10460110;28;20029;-66
2023/07/30 02:21:32;;;;;;;17.52;5.50;;;;;;;-147.32;100.00;65238.50;10438842;28;20036;-67
2023/07/30 02:26:32;;;;;;;14.30;4.57;;;;;;;-147.32;100.00;65238.50;10456911;28;20033;-67
2023/07/30 02:31:33;;;;;;;15.60;4.38;;;;;;;-147.32;100.00;65238.50;10459292;28;20476;-66
2023/07/30 02:36:33;;;;;;;16.52;6.10;;;;;;;-147.32;100.00;65238.50;10440551;28;20096;-68
2023/07/30 02:41:34;;;;;;;15.07;5.20;;;;;;;-147.32;100.00;65238.50;10457268;28;20129;-67
2023/07/30 02:46:34;;;;;;;13.50;4.50;;;;;;;-147.32;100.00;65238.50;10441821;28;20029;-67
2023/07/30 02:51:35;;;;;;;15.95;4.78;;;;;;;-147.32;100.00;65238.50;10462131;28;20033;-66
2023/07/30 02:56:35;;;;;;;12.70;4.80;;;;;;;-147.32;100.00;65238.50;10455532;28;20061;-67
2023/07/30 03:01:36;;;;;;;16.85;5.72;;;;;;;-147.32;100.00;65238.50;10477049;28;20135;-67
2023/07/30 03:06:36;;;;;;;13.65;4.20;;;;;;;-147.32;100.00;65238.50;10410267;28;20464;-67
2023/07/30 03:11:37;;;;;;;8.00;3.40;;;;;;;-147.32;100.00;65238.50;10442586;28;20044;-66
2023/07/30 03:16:37;;;;;;;10.15;3.70;;;;;;;-147.32;100.00;65238.50;10411787;28;20045;-67
2023/07/30 03:21:38;;;;;;;11.98;4.13;;;;;;;-147.32;100.00;65238.50;10459501;28;20100;-67
2023/07/30 03:26:38;;;;;;;12.43;3.83;;;;;;;-147.32;100.00;65238.50;10471977;28;20053;-67
2023/07/30 03:31:39;;;;;;;11.05;3.95;;;;;;;-147.32;100.00;65238.50;10441152;28;20037;-67
2023/07/30 03:36:39;;;;;;;12.88;3.40;;;;;;;-147.32;100.00;65238.50;10437713;28;20041;-67
2023/07/30 03:41:40;;;;;;;12.40;4.00;;;;;;;-147.32;100.00;65238.50;10451880;28;20044;-67
2023/07/30 03:46:40;;;;;;;9.48;3.50;;;;;;;-147.32;100.00;65238.50;10454621;28;20041;-67
2023/07/30 03:51:41;;;;;;;8.27;3.25;;;;;;;-147.32;100.00;65238.50;10430663;28;20037;-66
2023/07/30 03:56:41;;;;;;;12.18;3.03;;;;;;;-147.32;100.00;65238.50;10439210;28;20029;-67
2023/07/30 04:01:42;;;;;;;13.65;3.40;;;;;;;-147.32;100.00;65238.50;10453564;28;20044;-66
2023/07/30 04:06:42;;;;;;;9.20;3.38;;;;;;;-147.32;100.00;65238.50;10440695;28;20056;-66
2023/07/30 04:11:43;;;;;;;13.13;2.55;;;;;;;-147.32;100.00;65238.50;10456018;28;20040;-66
2023/07/30 04:16:46;;;;;;;16.60;3.60;;;;;;;-147.32;100.00;65238.50;10451327;28;20063;-66
2023/07/30 04:21:47;;;;;;;9.95;3.60;;;;;;;-147.32;100.00;65238.50;10475831;28;20063;-67
2023/07/30 04:26:47;;;;;;;14.63;3.15;;;;;;;-147.32;100.00;65238.50;10451110;28;20040;-67
2023/07/30 04:31:48;;;;;;;15.15;3.28;;;;;;;-147.32;100.00;65238.50;10440746;28;20040;-66
2023/07/30 04:36:48;;;;;;;13.15;4.40;;;;;;;-147.32;100.00;65238.50;10444436;28;20044;-67
2023/07/30 04:41:49;;;;;;;10.82;2.92;;;;;;;-147.32;100.00;65238.50;10477587;28;20347;-67
2023/07/30 04:46:49;;;;;;;11.43;3.22;;;;;;;-147.32;100.00;65238.50;10482635;28;20036;-67
2023/07/30 04:51:50;;;;;;;13.45;2.85;;;;;;;-147.32;100.00;65238.50;10444644;28;20053;-66
2023/07/30 04:56:50;;;;;;;15.02;3.30;;;;;;;-147.32;100.00;65238.50;10480964;28;20059;-67
2023/07/30 05:01:51;;;;;;;10.73;3.05;;;;;;;-147.32;100.00;65238.50;10479375;28;20049;-67
2023/07/30 05:06:52;;;;;;;15.20;3.67;;;;;;;-147.32;100.00;65238.50;10459826;28;20048;-67
2023/07/30 05:11:52;;;;;;;13.65;2.72;;;;;;;-147.32;100.00;65238.50;10437203;28;20060;-66
2023/07/30 05:16:53;;;;;;;13.60;3.15;;;;;;;-147.32;100.00;65238.50;10463192;28;20047;-67
2023/07/30 05:21:53;;;;;;;14.60;2.95;;;;;;;-147.32;100.00;65238.50;10463758;28;20055;-66
2023/07/30 05:26:54;;;;;;;14.05;4.68;;;;;;;-147.32;100.00;65238.50;10434472;28;20483;-66
2023/07/30 05:31:54;;;;;;;11.65;3.10;;;;;;;-147.32;100.00;65238.50;10431506;28;20377;-66
2023/07/30 05:36:54;;;;;;;13.10;3.13;;;;;;;-147.32;100.00;65238.50;10456428;28;20068;-66
2023/07/30 05:41:55;;;;;;;15.63;3.15;;;;;;;-147.32;100.00;65238.50;10459216;28;20064;-66
2023/07/30 05:46:55;;;;;;;14.13;3.60;;;;;;;-147.32;100.00;65238.50;10456616;28;20045;-66
2023/07/30 05:51:56;;;;;;;9.63;2.63;;;;;;;-147.32;100.00;65238.50;10453936;28;20045;-67
2023/07/30 05:56:57;;;;;;;10.52;3.00;;;;;;;-147.32;100.00;65238.50;10458146;28;20037;-66
2023/07/30 06:01:59;;;;;;;14.85;3.83;;;;;;;-147.32;100.00;65238.50;10464319;28;20041;-67
2023/07/30 06:07:00;;;;;;;13.32;2.92;;;;;;;-147.32;100.00;65238.50;10442688;28;20043;-67
2023/07/30 06:12:01;;;;;;;16.15;3.28;;;;;;;-147.32;100.00;65238.50;10443619;28;20583;-66
2023/07/30 06:17:01;;;;;;;8.45;2.83;;;;;;;-147.32;100.00;65238.50;10459368;28;20044;-66
2023/07/30 06:22:02;;;;;;;7.97;2.75;;;;;;;-147.32;100.00;65238.50;10424771;28;20118;-67
2023/07/30 06:27:03;;;;;;;18.98;3.63;;;;;;;-147.32;100.00;65238.50;10461123;28;20159;-67
2023/07/30 06:32:03;;;;;;;13.38;3.47;;;;;;;-147.32;100.00;65238.50;10459914;28;20033;-67
2023/07/30 06:37:04;;;;;;;10.82;4.43;;;;;;;-147.32;100.00;65238.50;10438283;28;20236;-66
2023/07/30 06:42:05;;;;;;;9.75;2.78;;;;;;;-147.32;100.00;65238.50;10478873;28;20098;-67
2023/07/30 06:47:05;;;;;;;11.20;2.63;;;;;;;-147.32;100.00;65238.50;10453261;28;20036;-66
2023/07/30 06:52:06;;;;;;;10.27;3.10;;;;;;;-147.32;100.00;65238.50;10427151;28;20039;-66
2023/07/30 06:57:06;;;;;;;15.07;3.05;;;;;;;-147.32;100.00;65238.50;10471168;28;20087;-67
2023/07/30 07:02:07;;;;;;;13.50;3.67;;;;;;;-147.32;100.00;65238.50;10457869;28;20040;-67
2023/07/30 07:07:08;;;;;;;9.77;2.28;;;;;;;-147.32;100.00;65238.50;10464305;28;20756;-66
2023/07/30 07:12:08;;;;;;;13.18;3.70;;;;;;;-147.32;100.00;65238.50;10440418;28;20044;-66
2023/07/30 07:17:09;;;;;;;12.25;4.40;;;;;;;-147.32;100.00;65238.50;10456094;28;20041;-66
2023/07/30 07:22:10;;;;;;;9.77;3.10;;;;;;;-147.32;100.00;65238.50;10420009;28;20120;-66
2023/07/30 07:27:11;;;;;;;13.57;3.30;;;;;;;-147.32;100.00;65238.50;10417163;28;20033;-67
2023/07/30 07:32:11;;;;;;;10.48;3.50;;;;;;;-147.32;100.00;65238.50;10422437;28;20047;-66
2023/07/30 07:37:14;;;;;;;11.25;3.42;;;;;;;-147.32;100.00;65238.50;10460980;28;20040;-66
2023/07/30 07:42:15;;;;;;;18.52;3.75;;;;;;;-147.32;100.00;65238.50;10455663;28;20461;-65
2023/07/30 07:47:15;;;;;;;11.73;3.03;;;;;;;-147.32;100.00;65238.50;10461162;28;20037;-67
2023/07/30 07:52:16;;;;;;;13.48;3.53;;;;;;;-147.32;100.00;65238.50;10424298;28;20029;-67
2023/07/30 07:57:16;;;;;;;12.73;4.28;;;;;;;-147.32;100.00;65238.50;10438955;28;20041;-66
2023/07/30 08:02:18;;;;;;;13.88;2.75;;;;;;;-147.32;100.00;65238.50;10454912;28;20575;-67
2023/07/30 08:07:18;;;;;;;12.75;2.83;;;;;;;-147.32;100.00;65238.50;10426847;28;20037;-67
2023/07/30 08:12:19;;;;;;;8.90;2.30;;;;;;;-147.32;100.00;65238.50;10458370;28;20044;-67
2023/07/30 08:17:20;;;;;;;9.50;2.30;;;;;;;-147.32;100.00;65238.50;10407326;28;20140;-67
2023/07/30 08:22:21;;;;;;;10.75;2.05;;;;;;;-147.32;100.00;65238.50;10441579;28;20574;-68
2023/07/30 08:27:21;;;;;;;10.07;2.47;;;;;;;-147.32;100.00;65238.50;10451584;28;20112;-68
2023/07/30 08:32:22;;;;;;;5.75;1.42;;;;;;;-147.32;100.00;65238.50;10430660;28;20049;-68
2023/07/30 08:37:23;;;;;;;8.10;1.85;;;;;;;-147.32;100.00;65238.50;10427107;28;20033;-68
2023/07/30 08:42:24;;;;;;;6.88;2.03;;;;;;;-147.32;100.00;65238.50;10461859;28;20459;-67
2023/07/30 08:47:24;;;;;;;9.80;1.65;;;;;;;-147.32;100.00;65238.50;10447863;28;20519;-68
2023/07/30 08:52:25;;;;;;;8.15;1.30;;;;;;;-147.32;100.00;65238.50;10436495;28;20045;-66
2023/07/30 08:57:25;;;;;;;10.65;1.50;;;;;;;-147.32;100.00;65238.50;10417681;28;20040;-68
2023/07/30 09:02:49;;;;;;;6.35;1.73;;;;;;;-147.32;100.00;65238.50;10447178;28;20528;-68
2023/07/30 09:07:50;;;;;;;5.55;1.55;;;;;;;-147.32;100.00;65238.50;10408146;28;20056;-67
2023/07/30 09:12:57;;;;;;;7.65;1.42;;;;;;;-147.32;100.00;65238.50;10464817;28;20063;-66
2023/07/30 09:17:59;;;;;;;5.32;1.25;;;;;;;-147.32;100.00;65238.50;10460876;28;20045;-66
2023/07/30 09:22:59;;;;;;;6.13;2.30;;;;;;;-147.32;100.00;65238.50;10463335;28;20054;-66
2023/07/30 09:28:00;;;;;;;6.45;1.50;;;;;;;-147.32;100.00;65238.50;10435460;28;20056;-67
2023/07/30 09:33:00;;;;;;;5.25;1.38;;;;;;;-147.32;100.00;65238.50;10403628;28;20037;-66
2023/07/30 09:38:02;;;;;;;6.45;1.60;;;;;;;-147.32;100.00;65238.50;10402325;28;20046;-66
2023/07/30 09:43:03;;;;;;;4.93;1.45;;;;;;;-147.32;100.00;65238.50;10383222;28;20045;-67
2023/07/30 09:48:05;;;;;;;9.13;2.40;;;;;;;-147.32;100.00;65238.50;10386997;28;20038;-66
2023/07/30 09:53:05;;;;;;;5.80;1.60;;;;;;;-147.32;100.00;65238.50;10379469;28;20037;-65
2023/07/30 09:58:07;;;;;;;6.47;1.65;;;;;;;-147.32;100.00;65238.50;10380143;28;20824;-66
2023/07/30 10:03:08;;;;;;;9.27;2.92;;;;;;;-147.32;100.00;65238.50;10366960;28;20536;-66
2023/07/30 10:08:10;;;;;;;8.57;1.73;;;;;;;-147.32;100.00;65238.50;10372493;28;20045;-65
2023/07/30 10:13:11;;;;;;;5.43;1.80;;;;;;;-147.32;100.00;65238.50;10395999;28;20060;-66
2023/07/30 10:18:11;;;;;;;8.98;1.92;;;;;;;-147.32;100.00;65238.50;10376481;28;20069;-66
2023/07/30 10:23:12;;;;;;;5.05;2.25;;;;;;;-147.32;100.00;65238.50;10393140;28;20056;-66
2023/07/30 10:28:36;;;;;;;6.20;1.17;;;;;;;-147.32;100.00;65238.50;10398983;28;20066;-66
2023/07/30 10:33:55;;;;;;;6.13;2.17;;;;;;;-147.32;100.00;65238.50;10422587;28;20061;-66
2023/07/30 10:38:56;;;;;;;5.55;1.08;;;;;;;-147.32;100.00;65238.50;10430171;28;20060;-66
2023/07/30 10:43:56;;;;;;;6.57;1.08;;;;;;;-147.32;100.00;65238.50;10410599;28;20067;-66
2023/07/30 10:48:57;;;;;;;2.17;1.00;;;;;;;-147.32;100.00;65238.50;10454030;28;20103;-67
2023/07/30 10:53:57;;;;;;;4.22;2.17;;;;;;;-147.32;100.00;65238.50;10457475;28;20417;-67
2023/07/30 10:58:58;;;;;;;6.45;1.30;;;;;;;-147.32;100.00;65238.50;10438756;28;20045;-68
2023/07/30 11:03:59;;;;;;;8.10;1.48;;;;;;;-147.32;100.00;65238.50;10471801;28;20048;-67
2023/07/30 11:09:00;;;;;;;6.28;2.15;;;;;;;-147.32;100.00;65238.50;10449960;28;20051;-67
2023/07/30 11:14:00;;;;;;;3.17;1.27;;;;;;;-147.32;100.00;65238.50;10456965;28;20045;-68
2023/07/30 11:19:01;;;;;;;5.15;1.50;;;;;;;-147.32;100.00;65238.50;10436495;28;20075;-67
2023/07/30 11:24:02;;;;;;;7.22;1.27;;;;;;;-147.32;100.00;65238.50;10437305;28;20032;-68
2023/07/30 11:29:17;;;;;;;4.53;2.17;;;;;;;-147.32;100.00;65238.50;10407448;28;20117;-67
2023/07/30 11:34:18;;;;;;;5.80;1.30;;;;;;;-147.32;100.00;65238.50;10456705;28;20274;-66
2023/07/30 11:39:19;;;;;;;4.90;1.70;;;;;;;-147.32;100.00;65238.50;10442188;28;20104;-68
2023/07/30 11:44:33;;;;;;;5.88;1.77;;;;;;;-147.32;100.00;65238.50;10431701;28;20033;-68
2023/07/30 11:49:34;;;;;;;6.20;1.42;;;;;;;-147.32;100.00;65238.50;10472512;28;20033;-68
2023/07/30 11:54:34;;;;;;;4.43;1.83;;;;;;;-147.32;100.00;65238.50;10422226;28;20060;-70
2023/07/30 11:59:36;;;;;;;4.63;1.02;;;;;;;-147.32;100.00;65238.50;10415450;28;20100;-69
2023/07/30 12:04:43;;;;;;;4.57;1.13;;;;;;;-147.32;100.00;65238.50;10432094;28;20637;-70
2023/07/30 12:09:44;;;;;;;5.72;1.85;;;;;;;-147.32;100.00;65238.50;10437498;28;20064;-70
2023/07/30 12:14:54;;;;;;;6.40;1.40;;;;;;;-147.32;100.00;65238.50;10427436;28;20044;-70
2023/07/30 12:19:54;;;;;;;8.05;1.17;;;;;;;-147.32;100.00;65238.50;10436947;28;20091;-69
2023/07/30 12:24:55;;;;;;;9.25;1.40;;;;;;;-147.32;100.00;65238.50;10414958;28;20106;-69
2023/07/30 12:29:55;;;;;;;5.30;0.88;;;;;;;-147.32;100.00;65238.50;10468809;28;20060;-70
2023/07/30 12:34:56;;;;;;;7.22;0.88;;;;;;;-147.32;100.00;65238.50;10442619;28;20064;-69
2023/07/30 12:39:56;;;;;;;2.72;0.90;;;;;;;-147.32;100.00;65238.50;10451085;28;20437;-68
2023/07/30 12:44:57;;;;;;;3.72;0.75;;;;;;;-147.32;100.00;65238.50;10456534;28;20032;-69
2023/07/30 12:49:57;;;;;;;6.80;1.80;;;;;;;-147.32;100.00;65238.50;10448091;28;20055;-69
2023/07/30 12:54:58;;;;;;;7.57;1.33;;;;;;;-147.32;100.00;65238.50;10452273;28;20037;-68
2023/07/30 12:59:58;;;;;;;4.15;1.10;;;;;;;-147.32;100.00;65238.50;10434708;28;20150;-68
2023/07/30 13:04:59;;;;;;;5.90;0.90;;;;;;;-147.32;100.00;65238.50;10479484;28;20512;-68
2023/07/30 13:10:05;;;;;;;4.63;1.05;;;;;;;-147.32;100.00;65238.50;10426684;28;20107;-69
2023/07/30 13:15:06;;;;;;;10.77;2.45;;;;;;;-147.32;100.00;65238.50;10460462;28;20491;-69
2023/07/30 13:20:07;;;;;;;5.25;0.85;;;;;;;-147.32;100.00;65238.50;10479118;28;20043;-69
2023/07/30 13:25:07;;;;;;;6.75;1.00;;;;;;;-147.32;100.00;65238.50;10459025;28;20128;-69
2023/07/30 13:30:08;;;;;;;2.38;0.80;;;;;;;-147.32;100.00;65238.50;10439617;28;20037;-69
2023/07/30 13:35:09;;;;;;;4.20;0.70;;;;;;;-147.32;100.00;65238.50;10477871;28;20083;-69
2023/07/30 13:40:10;;;;;;;4.63;0.75;;;;;;;-147.32;100.00;65238.50;10463379;28;20055;-69
2023/07/30 13:45:10;;;;;;;5.93;0.68;;;;;;;-147.32;100.00;65238.50;10474720;28;20396;-69
2023/07/30 13:50:11;;;;;;;3.05;0.75;;;;;;;-147.32;100.00;65238.50;10474592;28;20037;-69
2023/07/30 13:55:11;;;;;;;4.40;1.15;;;;;;;-147.32;100.00;65238.50;10452833;28;20052;-69
2023/07/30 14:00:12;;;;;;;4.93;1.00;;;;;;;-147.32;100.00;65238.50;10474788;28;20037;-69
2023/07/30 14:05:13;;;;;;;3.58;0.75;;;;;;;-147.32;100.00;65238.50;10459343;28;20445;-69
2023/07/30 14:10:13;;;;;;;5.93;1.17;;;;;;;-147.32;100.00;65238.50;10478921;28;20044;-68
2023/07/30 14:15:14;;;;;;;6.40;1.10;;;;;;;-147.32;100.00;65238.50;10443767;28;20048;-70
2023/07/30 14:20:15;;;;;;;7.88;0.85;;;;;;;-147.32;100.00;65238.50;10422414;28;20040;-70
2023/07/30 14:25:15;;;;;;;3.38;0.68;;;;;;;-147.32;100.00;65238.50;10438825;28;20037;-68
2023/07/30 14:30:16;;;;;;;6.75;1.20;;;;;;;-147.32;100.00;65238.50;10458459;28;20365;-69
2023/07/30 14:35:16;;;;;;;3.38;1.10;;;;;;;-147.32;100.00;65238.50;10442415;28;20040;-68
2023/07/30 14:40:17;;;;;;;7.05;1.65;;;;;;;-147.32;100.00;65238.50;10477451;28;20033;-68
2023/07/30 14:45:18;;;;;;;3.97;0.88;;;;;;;-147.32;100.00;65238.50;10474471;28;20064;-70
2023/07/30 14:50:18;;;;;;;5.55;0.80;;;;;;;-147.32;100.00;65238.50;10476853;28;20037;-69
2023/07/30 14:55:19;;;;;;;3.97;0.77;;;;;;;-147.32;100.00;65238.50;10465048;28;20032;-70
2023/07/30 15:00:19;;;;;;;5.05;0.60;;;;;;;-147.32;100.00;65238.50;10430090;28;20045;-70
2023/07/30 15:05:20;;;;;;;4.13;0.60;;;;;;;-147.32;100.00;65238.50;10444569;28;20428;-70
2023/07/30 15:10:20;;;;;;;4.13;1.00;;;;;;;-147.32;100.00;65238.50;10478663;28;20069;-70
2023/07/30 15:15:21;;;;;;;3.72;0.75;;;;;;;-147.32;100.00;65238.50;10437896;28;20033;-69
2023/07/30 15:20:21;;;;;;;4.88;0.98;;;;;;;-147.32;100.00;65238.50;10471842;28;20476;-70
2023/07/30 15:25:22;;;;;;;4.50;1.70;;;;;;;-147.32;100.00;65238.50;10434416;28;20040;-68
2023/07/30 15:30:22;;;;;;;3.08;0.60;;;;;;;-147.32;100.00;65238.50;10456975;28;20063;-68
2023/07/30 15:35:23;;;;;;;2.80;0.93;;;;;;;-147.32;100.00;65238.50;10456339;28;20036;-69
2023/07/30 15:40:23;;;;;;;7.40;0.82;;;;;;;-147.32;100.00;65238.50;10472061;28;20070;-69
2023/07/30 15:45:24;;;;;;;5.30;1.30;;;;;;;-147.32;100.00;65238.50;10414025;28;20033;-69
2023/07/30 15:50:26;;;;;;;6.35;1.02;;;;;;;-147.32;100.00;65238.50;10432211;28;20035;-68
2023/07/30 15:55:26;;;;;;;3.67;0.85;;;;;;;-147.32;100.00;65238.50;10441536;28;20067;-69
2023/07/30 16:00:27;;;;;;;5.03;1.33;;;;;;;-147.32;100.00;65238.50;10471518;28;20041;-71
2023/07/30 16:05:27;;;;;;;5.97;0.93;;;;;;;-147.32;100.00;65238.50;10456350;28;20083;-67
2023/07/30 16:10:28;;;;;;;3.40;1.00;;;;;;;-147.32;100.00;65238.50;10411282;28;20132;-69
2023/07/30 16:15:29;;;;;;;9.68;1.00;;;;;;;-147.32;100.00;65238.50;10457506;28;20048;-69
2023/07/30 16:20:30;;;;;;;5.65;1.13;;;;;;;-147.32;100.00;65238.50;10409212;28;20476;-69
2023/07/30 16:25:30;;;;;;;5.95;0.80;;;;;;;-147.32;100.00;65238.50;10383950;28;20089;-68
2023/07/30 16:30:31;;;;;;;7.60;0.82;;;;;;;-147.32;100.00;65238.50;10378679;28;20033;-68
2023/07/30 16:35:31;;;;;;;3.03;0.88;;;;;;;-147.32;100.00;65238.50;10393253;28;20038;-69
2023/07/30 16:40:32;;;;;;;6.43;1.30;;;;;;;-147.32;100.00;65238.50;10368918;28;20068;-69
2023/07/30 16:45:32;;;;;;;5.95;1.13;;;;;;;-147.32;100.00;65238.50;10389275;28;20044;-69
2023/07/30 16:50:33;;;;;;;9.52;1.48;;;;;;;-147.32;100.00;65238.50;10475839;28;20036;-70
2023/07/30 16:55:34;;;;;;;6.32;1.17;;;;;;;-147.32;100.00;65238.50;10443800;28;20033;-68
2023/07/30 17:00:34;;;;;;;5.95;1.10;;;;;;;-147.32;100.00;65238.50;10477356;28;20037;-67
2023/07/30 17:05:35;;;;;;;5.63;1.10;;;;;;;-147.32;100.00;65238.50;10462746;28;21136;-68
2023/07/30 17:10:36;;;;;;;5.00;0.82;;;;;;;-147.32;100.00;65238.50;10460477;28;20041;-69
2023/07/30 17:15:36;;;;;;;6.55;1.20;;;;;;;-147.32;100.00;65238.50;10463283;28;20033;-68
2023/07/30 17:20:37;;;;;;;4.70;1.38;;;;;;;-147.32;100.00;65238.50;10480052;28;20051;-68
2023/07/30 17:25:37;;;;;;;5.13;1.17;;;;;;;-147.32;100.00;65238.50;10489614;28;20079;-69
2023/07/30 17:30:38;;;;;;;6.10;1.13;;;;;;;-147.32;100.00;65238.50;10462448;28;20033;-69
2023/07/30 17:35:39;;;;;;;6.25;1.33;;;;;;;-147.32;100.00;65238.50;10441276;28;20041;-69
2023/07/30 17:40:39;;;;;;;5.90;1.63;;;;;;;-147.32;100.00;65238.50;10459599;28;20045;-69
2023/07/30 17:45:40;;;;;;;6.35;1.30;;;;;;;-147.32;100.00;65238.50;10449052;28;20090;-68
2023/07/30 17:50:40;;;;;;;11.50;1.67;;;;;;;-147.32;100.00;65238.50;10443988;28;20037;-68
2023/07/30 17:55:42;;;;;;;4.47;1.00;;;;;;;-147.32;100.00;65238.50;10462719;28;20037;-67
2023/07/30 18:00:43;;;;;;;4.47;0.95;;;;;;;-147.32;100.00;65238.50;10444112;28;20428;-69
2023/07/30 18:05:47;;;;;;;5.05;0.80;;;;;;;-147.32;100.00;65238.50;10427267;28;20044;-66
2023/07/30 18:10:47;;;;;;;6.72;1.15;;;;;;;-147.32;100.00;65238.50;10461278;28;20381;-68
2023/07/30 18:15:48;;;;;;;3.05;1.02;;;;;;;-147.32;100.00;65238.50;10423584;28;20040;-68
2023/07/30 18:20:48;;;;;;;8.82;1.25;;;;;;;-147.32;100.00;65238.50;10478705;28;20057;-68
2023/07/30 18:25:49;;;;;;;6.20;1.42;;;;;;;-147.32;100.00;65238.50;10452632;28;20044;-68
2023/07/30 18:30:49;;;;;;;5.82;1.20;;;;;;;-147.32;100.00;65238.50;10452041;28;20067;-69
2023/07/30 18:35:56;;;;;;;5.22;1.52;;;;;;;-147.32;100.00;65238.50;10444058;28;20579;-68
2023/07/30 18:41:00;;;;;;;;;;;;;;;-147.32;100.00;65238.50;10428452;28;20492;-68
2023/07/30 18:46:01;;;;;;;7.90;1.98;;;;;;;-147.32;100.00;65238.50;10450497;28;19920;-68
2023/07/30 18:51:02;;;;;;;8.32;1.10;;;;;;;-147.32;100.00;65238.50;10464357;28;20119;-68
2023/07/30 18:56:04;;;;;;;10.57;2.10;;;;;;;-147.32;100.00;65238.50;10442549;28;20033;-68
2023/07/30 19:01:04;;;;;;;12.18;2.38;;;;;;;-147.32;100.00;65238.50;10459077;28;20040;-68
2023/07/30 19:06:05;;;;;;;9.00;1.65;;;;;;;-147.32;100.00;65238.50;10456822;28;20047;-68
2023/07/30 19:11:05;;;;;;;10.13;1.63;;;;;;;-147.32;100.00;65238.50;10431675;28;20056;-68
2023/07/30 19:16:06;;;;;;;6.20;1.65;;;;;;;-147.32;100.00;65238.50;10452921;28;20040;-68
2023/07/30 19:21:06;;;;;;;10.05;2.17;;;;;;;-147.32;100.00;65238.50;10442756;28;20033;-68
2023/07/30 19:26:08;;;;;;;7.03;1.73;;;;;;;-147.32;100.00;65238.50;10422454;28;20059;-68
2023/07/30 19:31:09;;;;;;;9.30;1.58;;;;;;;-147.32;100.00;65238.50;10415130;28;20494;-68
2023/07/30 19:36:13;;;;;;;6.85;1.90;;;;;;;-147.32;100.00;65238.50;10452193;28;20097;-67
2023/07/30 19:41:13;;;;;;;5.72;1.60;;;;;;;-147.32;100.00;65238.50;10438459;28;20146;-68
2023/07/30 19:46:14;;;;;;;5.75;1.60;;;;;;;-147.32;100.00;65238.50;10437316;28;20543;-69
2023/07/30 19:51:16;;;;;;;10.93;1.80;;;;;;;-147.32;100.00;65238.50;10476006;28;20049;-68
2023/07/30 19:56:16;;;;;;;8.57;1.83;;;;;;;-147.32;100.00;65238.50;10435392;28;20037;-69
2023/07/30 20:01:17;;;;;;;11.05;2.42;;;;;;;-147.32;100.00;65238.50;10423285;28;20353;-70
2023/07/30 20:06:18;;;;;;;9.75;2.00;;;;;;;-147.32;100.00;65238.50;10442923;28;20543;-70
2023/07/30 20:11:20;;;;;;;11.40;3.03;;;;;;;-147.32;100.00;65238.50;10448764;28;20045;-70
2023/07/30 20:16:21;;;;;;;9.98;2.42;;;;;;;-147.32;100.00;65238.50;10459212;28;20040;-69
2023/07/30 20:21:22;;;;;;;17.58;3.22;;;;;;;-147.32;100.00;65238.50;10436988;28;20040;-69
2023/07/30 20:26:23;;;;;;;8.85;2.63;;;;;;;-147.32;100.00;65238.50;10430045;28;20105;-69
2023/07/30 20:31:27;;;;;;;9.88;2.42;;;;;;;-147.32;100.00;65238.50;10441977;28;20044;-69
2023/07/30 20:36:28;;;;;;;7.78;2.05;;;;;;;-147.32;100.00;65238.50;10451477;28;20048;-69
2023/07/30 20:41:28;;;;;;;7.05;1.92;;;;;;;-147.32;100.00;65238.50;10471876;28;20041;-69
2023/07/30 20:46:29;;;;;;;11.45;2.17;;;;;;;-147.32;100.00;65238.50;10440511;28;20036;-69
2023/07/30 20:51:29;;;;;;;11.60;2.65;;;;;;;-147.32;100.00;65238.50;10472712;28;20215;-69
2023/07/30 20:56:30;;;;;;;10.90;2.25;;;;;;;-147.32;100.00;65238.50;10456295;28;20116;-69
2023/07/30 21:01:31;;;;;;;9.02;1.77;;;;;;;-147.32;100.00;65238.50;10415265;28;20045;-70
2023/07/30 21:06:31;;;;;;;12.77;2.30;;;;;;;-147.32;100.00;65238.50;10437427;28;20575;-69
2023/07/30 21:11:34;;;;;;;15.88;3.17;;;;;;;-147.32;100.00;65238.50;10450366;28;20067;-68
2023/07/30 21:16:34;;;;;;;13.02;3.25;;;;;;;-147.32;100.00;65238.50;10465034;28;20040;-67
2023/07/30 21:21:35;;;;;;;10.95;2.10;;;;;;;-147.32;100.00;65238.50;10410724;28;20350;-67
2023/07/30 21:26:35;;;;;;;7.57;2.10;;;;;;;-147.32;100.00;65238.50;10439848;28;20431;-68
2023/07/30 21:31:36;;;;;;;5.57;2.30;;;;;;;-147.32;100.00;65238.50;10446836;28;20087;-68
2023/07/30 21:36:36;;;;;;;9.63;1.80;;;;;;;-147.32;100.00;65238.50;10443805;28;20033;-67
2023/07/30 21:41:37;;;;;;;15.13;3.70;;;;;;;-147.32;100.00;65238.50;10447571;28;20074;-68
2023/07/30 21:46:37;;;;;;;8.55;2.45;;;;;;;-147.32;100.00;65238.50;10423854;28;20036;-67
2023/07/30 21:51:38;;;;;;;4.05;1.80;;;;;;;-147.32;100.00;65238.50;10414865;28;20429;-67
2023/07/30 21:56:38;;;;;;;5.03;2.20;;;;;;;-147.32;100.00;65238.50;10427639;28;20185;-68
2023/07/30 22:01:39;;;;;;;9.93;2.15;;;;;;;-147.32;100.00;65238.50;10447009;28;20044;-68
2023/07/30 22:06:39;;;;;;;8.95;2.58;;;;;;;-147.32;100.00;65238.50;10460137;28;20048;-68
2023/07/30 22:11:40;;;;;;;6.78;2.10;;;;;;;-147.32;100.00;65238.50;10460693;28;20041;-68
2023/07/30 22:16:40;;;;;;;6.25;2.30;;;;;;;-147.32;100.00;65238.50;10475540;28;20177;-68
2023/07/30 22:21:41;;;;;;;6.53;3.00;;;;;;;-147.32;100.00;65238.50;10459735;28;20052;-68
2023/07/30 22:26:41;;;;;;;8.30;2.53;;;;;;;-147.32;100.00;65238.50;10464285;28;20045;-67